Time;durP1;ratioP1;P1;durP2;ratioP2;P2;SDS_P1;SDS_P2;PMS_P1;PMS_P2;Temp;Humidity;BMP_temperature;BMP_pressure;BME280_temperature;BME280_humidity;BME280_pressure;Samples;Min_cycle;Max_cycle;Signal;HPM_P1;HPM_P2
2020/12/13 00:00:33;;;;;;;39.15;24.50;;;9.00;94.40;;;;;;5013252;28;20057;-83
2020/12/13 00:02:59;;;;;;;35.05;23.80;;;9.00;94.40;;;;;;5032778;28;20021;-83
2020/12/13 00:05:25;;;;;;;40.75;25.70;;;9.00;94.40;;;;;;5033226;28;20036;-84
2020/12/13 00:07:52;;;;;;;41.08;26.20;;;8.90;94.50;;;;;;5031765;28;20029;-80
2020/12/13 00:10:18;;;;;;;42.35;26.35;;;8.90;94.60;;;;;;5032971;28;20029;-84
2020/12/13 00:12:44;;;;;;;40.85;26.13;;;8.90;94.50;;;;;;5032069;28;20047;-83
2020/12/13 00:15:10;;;;;;;42.72;26.15;;;8.90;94.50;;;;;;5033312;28;20105;-81
2020/12/13 00:17:35;;;;;;;39.83;25.98;;;8.90;94.60;;;;;;5032923;28;20470;-82
2020/12/13 00:20:01;;;;;;;43.15;26.98;;;8.80;94.60;;;;;;5032308;28;20466;-81
2020/12/13 00:22:26;;;;;;;44.53;28.42;;;8.80;94.60;;;;;;5031425;28;20041;-82
2020/12/13 00:24:52;;;;;;;47.22;29.15;;;8.80;94.60;;;;;;5032824;28;20033;-76
2020/12/13 00:27:17;;;;;;;42.65;28.45;;;8.70;94.60;;;;;;5032491;28;20033;-79
2020/12/13 00:29:43;;;;;;;47.08;29.52;;;8.70;94.70;;;;;;5032819;28;20043;-76
2020/12/13 00:32:08;;;;;;;50.28;31.27;;;8.60;94.70;;;;;;5032236;28;20050;-80
2020/12/13 00:34:34;;;;;;;48.85;30.00;;;8.60;94.70;;;;;;5033437;28;20044;-81
2020/12/13 00:37:00;;;;;;;50.35;30.17;;;8.70;94.80;;;;;;5036478;28;20104;-77
2020/12/13 00:39:26;;;;;;;49.75;30.38;;;8.70;94.80;;;;;;5036555;28;20017;-82
2020/12/13 00:41:52;;;;;;;51.17;30.23;;;8.70;94.80;;;;;;5035638;28;20070;-76
2020/12/13 00:44:18;;;;;;;46.33;30.63;;;8.80;94.70;;;;;;5036653;28;20022;-81
2020/12/13 00:46:45;;;;;;;52.42;33.58;;;8.80;94.60;;;;;;5036715;28;20028;-75
2020/12/13 00:49:12;;;;;;;54.80;34.28;;;8.80;94.60;;;;;;5034132;28;20041;-74
2020/12/13 00:51:38;;;;;;;50.03;31.70;;;8.80;94.60;;;;;;5036416;28;20021;-78
2020/12/13 00:54:04;;;;;;;53.65;33.63;;;8.80;94.60;;;;;;5035960;28;20029;-76
2020/12/13 00:56:29;;;;;;;49.78;31.92;;;8.80;94.60;;;;;;5034483;28;20018;-71
2020/12/13 00:58:55;;;;;;;48.75;32.28;;;8.80;94.50;;;;;;5036026;28;20017;-83
2020/12/13 01:01:21;;;;;;;51.88;32.83;;;8.70;94.60;;;;;;5036109;28;20377;-80
2020/12/13 01:03:46;;;;;;;51.67;32.60;;;8.70;94.60;;;;;;5035058;28;20030;-82
2020/12/13 01:06:23;;;;;;;49.95;32.35;;;8.70;94.60;;;;;;5035546;28;20100;-82
2020/12/13 01:08:51;;;;;;;55.58;35.25;;;8.70;94.60;;;;;;5034374;28;20029;-80
2020/12/13 01:11:27;;;;;;;49.70;32.33;;;8.70;94.50;;;;;;5035323;28;20378;-75
2020/12/13 01:13:53;;;;;;;50.63;32.97;;;8.70;94.60;;;;;;5035591;28;20052;-73
2020/12/13 01:16:19;;;;;;;49.83;32.83;;;8.70;94.60;;;;;;5035374;28;20462;-77
2020/12/13 01:18:45;;;;;;;51.53;30.23;;;8.70;94.60;;;;;;5035963;28;20104;-81
2020/12/13 01:21:15;;;;;;;43.65;30.35;;;8.70;94.50;;;;;;5035839;28;20025;-80
2020/12/13 01:23:41;;;;;;;44.90;30.05;;;8.80;94.50;;;;;;5035267;28;20075;-78
2020/12/13 01:26:10;;;;;;;46.72;31.38;;;8.80;94.50;;;;;;5035980;28;20022;-80
2020/12/13 01:28:35;;;;;;;47.05;31.13;;;8.80;94.40;;;;;;5035666;28;20390;-79
2020/12/13 01:31:01;;;;;;;47.35;31.05;;;8.80;94.40;;;;;;5034800;28;20057;-78
2020/12/13 01:33:26;;;;;;;46.83;31.92;;;8.80;94.40;;;;;;5035620;28;20066;-77
2020/12/13 01:35:52;;;;;;;43.35;29.40;;;8.80;94.50;;;;;;5034074;28;20032;-77
2020/12/13 01:38:17;;;;;;;46.70;30.17;;;8.90;94.40;;;;;;5034828;28;20518;-82
2020/12/13 01:40:43;;;;;;;46.38;30.10;;;8.80;94.40;;;;;;5033876;28;20029;-82
2020/12/13 01:43:08;;;;;;;47.28;29.38;;;8.80;94.40;;;;;;5034812;28;20029;-77
2020/12/13 01:45:34;;;;;;;45.97;29.00;;;8.80;94.40;;;;;;5033798;28;20033;-79
2020/12/13 01:48:00;;;;;;;44.03;28.85;;;8.90;94.50;;;;;;5034550;28;20048;-78
2020/12/13 01:50:42;;;;;;;46.50;29.55;;;8.90;94.40;;;;;;5033620;28;20044;-77
2020/12/13 01:53:18;;;;;;;;;;;8.80;94.40;;;;;;5034661;28;20025;-79
2020/12/13 01:55:47;;;;;;;45.38;28.35;;;8.80;94.40;;;;;;5035273;28;20270;-80
2020/12/13 01:58:18;;;;;;;43.97;29.17;;;8.90;94.30;;;;;;5033910;28;20035;-80
2020/12/13 02:00:48;;;;;;;43.40;30.48;;;8.80;94.30;;;;;;5035218;28;20389;-80
2020/12/13 02:03:23;;;;;;;45.17;28.88;;;8.80;94.30;;;;;;5034803;28;20021;-81
2020/12/13 02:05:56;;;;;;;46.88;28.70;;;8.90;94.40;;;;;;5034402;28;20045;-81
2020/12/13 02:08:23;;;;;;;39.95;25.80;;;8.90;94.40;;;;;;5035115;28;20025;-81
2020/12/13 02:10:49;;;;;;;41.25;26.70;;;8.90;94.30;;;;;;5035031;28;20058;-81
2020/12/13 02:13:15;;;;;;;45.90;28.27;;;8.90;94.30;;;;;;5034065;28;20060;-81
2020/12/13 02:15:40;;;;;;;44.40;27.38;;;8.90;94.30;;;;;;5033402;28;20056;-78
2020/12/13 02:18:06;;;;;;;44.97;28.33;;;8.90;94.30;;;;;;5033080;28;20022;-80
2020/12/13 02:20:31;;;;;;;48.38;27.48;;;8.90;94.30;;;;;;5032823;28;20030;-80
2020/12/13 02:22:58;;;;;;;41.95;27.02;;;8.90;94.30;;;;;;5034320;28;20036;-81
2020/12/13 02:25:24;;;;;;;41.33;25.90;;;8.90;94.30;;;;;;5033466;28;20478;-81
2020/12/13 02:27:50;;;;;;;42.05;26.20;;;8.90;94.30;;;;;;5033903;28;20048;-81
2020/12/13 02:30:15;;;;;;;42.33;24.67;;;8.90;94.30;;;;;;5032880;28;20056;-81
2020/12/13 02:32:42;;;;;;;42.15;26.30;;;8.90;94.30;;;;;;5034502;28;20076;-78
2020/12/13 02:35:09;;;;;;;41.45;26.45;;;8.90;94.30;;;;;;5034060;28;20029;-82
2020/12/13 02:37:35;;;;;;;38.63;24.63;;;8.90;94.30;;;;;;5034514;28;20031;-80
2020/12/13 02:40:01;;;;;;;41.00;24.38;;;8.90;94.30;;;;;;5034312;28;20029;-80
2020/12/13 02:42:27;;;;;;;52.92;28.13;;;8.90;94.30;;;;;;5032350;28;20094;-83
2020/12/13 02:44:52;;;;;;;45.50;26.25;;;8.80;94.30;;;;;;5034230;28;20033;-79
2020/12/13 02:47:18;;;;;;;47.47;26.92;;;8.80;94.30;;;;;;5034345;28;20105;-81
2020/12/13 02:49:44;;;;;;;43.10;26.27;;;8.80;94.30;;;;;;5033439;28;20390;-81
2020/12/13 02:52:09;;;;;;;44.67;26.88;;;8.90;94.30;;;;;;5033721;28;20470;-82
2020/12/13 02:54:36;;;;;;;44.00;25.75;;;8.90;94.30;;;;;;5033631;28;20475;-81
2020/12/13 02:57:02;;;;;;;45.45;25.35;;;8.90;94.30;;;;;;5033546;28;20072;-80
2020/12/13 02:59:28;;;;;;;46.63;27.52;;;8.90;94.30;;;;;;5034201;28;20029;-80
2020/12/13 03:01:53;;;;;;;45.05;26.52;;;8.90;94.20;;;;;;5033173;28;20484;-80
2020/12/13 03:04:19;;;;;;;45.50;25.73;;;8.90;94.30;;;;;;5034033;28;20108;-73
2020/12/13 03:06:44;;;;;;;51.65;26.60;;;9.00;94.30;;;;;;5033673;28;20029;-71
2020/12/13 03:09:10;;;;;;;47.42;26.40;;;9.00;94.30;;;;;;5032576;28;20072;-71
2020/12/13 03:11:35;;;;;;;45.75;25.67;;;9.00;94.20;;;;;;5032277;28;20489;-73
2020/12/13 03:14:01;;;;;;;45.42;25.70;;;9.00;94.20;;;;;;5033312;28;20037;-78
2020/12/13 03:16:26;;;;;;;46.95;26.17;;;9.10;94.30;;;;;;5032882;28;20024;-74
2020/12/13 03:18:52;;;;;;;51.80;27.48;;;9.10;94.20;;;;;;5033380;28;20037;-74
2020/12/13 03:21:17;;;;;;;51.17;26.90;;;9.10;94.20;;;;;;5033827;28;20021;-75
2020/12/13 03:23:43;;;;;;;47.47;25.95;;;9.10;94.50;;;;;;5031438;28;20034;-78
2020/12/13 03:26:08;;;;;;;50.60;25.88;;;9.10;94.10;;;;;;5033359;28;20018;-79
2020/12/13 03:28:34;;;;;;;46.10;25.00;;;9.20;94.20;;;;;;5032129;28;20033;-75
2020/12/13 03:30:59;;;;;;;42.83;25.23;;;9.10;94.10;;;;;;5032738;28;20172;-80
2020/12/13 03:33:25;;;;;;;50.88;26.50;;;9.10;94.10;;;;;;5033726;28;20470;-77
2020/12/13 03:35:51;;;;;;;56.22;28.05;;;9.10;94.10;;;;;;5033651;28;20022;-79
2020/12/13 03:38:17;;;;;;;54.33;28.25;;;9.20;94.10;;;;;;5031928;28;20044;-79
2020/12/13 03:40:42;;;;;;;55.22;27.55;;;9.20;94.10;;;;;;5033678;28;20061;-80
2020/12/13 03:43:08;;;;;;;50.20;26.23;;;9.20;94.10;;;;;;5033047;28;20033;-79
2020/12/13 03:45:34;;;;;;;53.67;26.95;;;9.20;94.10;;;;;;5032709;28;20025;-77
2020/12/13 03:47:59;;;;;;;57.92;28.58;;;9.20;94.10;;;;;;5032943;28;20025;-78
2020/12/13 03:50:25;;;;;;;57.08;29.52;;;9.20;94.10;;;;;;5033291;28;20029;-76
2020/12/13 03:52:50;;;;;;;49.85;26.05;;;9.20;94.20;;;;;;5031622;28;20038;-78
2020/12/13 03:55:16;;;;;;;53.55;27.40;;;9.20;94.20;;;;;;5033286;28;20029;-78
2020/12/13 03:57:41;;;;;;;53.38;26.85;;;9.20;94.20;;;;;;5031749;28;20032;-77
2020/12/13 04:00:07;;;;;;;49.15;25.17;;;9.30;94.30;;;;;;5032845;28;20036;-78
2020/12/13 04:02:32;;;;;;;56.22;27.50;;;9.30;94.20;;;;;;5031740;28;20056;-78
2020/12/13 04:04:58;;;;;;;66.30;30.00;;;9.30;94.20;;;;;;5031944;28;20040;-78
2020/12/13 04:07:23;;;;;;;57.78;28.63;;;9.30;94.20;;;;;;5032993;28;20063;-78
2020/12/13 04:09:49;;;;;;;66.60;27.60;;;9.20;94.10;;;;;;5035116;28;20092;-78
2020/12/13 04:12:14;;;;;;;66.90;29.58;;;9.30;94.20;;;;;;5034928;28;20032;-78
2020/12/13 04:14:40;;;;;;;55.75;28.10;;;9.30;94.20;;;;;;5037160;28;20068;-79
2020/12/13 04:17:05;;;;;;;63.33;28.35;;;9.30;94.20;;;;;;5036655;28;20064;-78
2020/12/13 04:19:31;;;;;;;58.42;26.83;;;9.30;94.20;;;;;;5034982;28;20127;-79
2020/12/13 04:21:58;;;;;;;66.32;27.52;;;9.30;94.20;;;;;;5035582;28;20021;-79
2020/12/13 04:24:23;;;;;;;57.95;26.35;;;9.30;94.20;;;;;;5036070;28;20021;-78
2020/12/13 04:26:49;;;;;;;57.25;26.77;;;9.30;94.20;;;;;;5036531;28;20462;-79
2020/12/13 04:29:14;;;;;;;62.28;28.83;;;9.30;94.20;;;;;;5036291;28;20034;-79
2020/12/13 04:31:40;;;;;;;61.38;27.38;;;9.30;94.20;;;;;;5035450;28;20041;-77
2020/12/13 04:34:06;;;;;;;63.58;26.77;;;9.30;94.20;;;;;;5034334;28;20057;-78
2020/12/13 04:36:32;;;;;;;68.18;30.92;;;9.30;94.20;;;;;;5036825;28;20075;-77
2020/12/13 04:38:57;;;;;;;47.72;26.00;;;9.30;94.30;;;;;;5036476;28;20462;-77
2020/12/13 04:41:23;;;;;;;59.05;27.15;;;9.30;94.30;;;;;;5036151;28;20025;-77
2020/12/13 04:43:49;;;;;;;58.30;28.42;;;9.30;94.30;;;;;;5036471;28;20022;-76
2020/12/13 04:46:15;;;;;;;57.42;28.60;;;9.30;94.30;;;;;;5035190;28;20075;-76
2020/12/13 04:48:40;;;;;;;57.95;29.15;;;9.30;94.30;;;;;;5034398;28;20116;-71
2020/12/13 04:51:08;;;;;;;53.90;28.52;;;9.30;94.30;;;;;;5035741;28;20018;-71
2020/12/13 04:53:37;;;;;;;58.88;30.30;;;9.30;94.40;;;;;;5034834;28;20025;-71
2020/12/13 04:56:10;;;;;;;61.95;28.02;;;9.30;94.40;;;;;;5035126;28;20037;-73
2020/12/13 04:58:36;;;;;;;53.83;27.45;;;9.30;94.40;;;;;;5034726;28;20028;-71
2020/12/13 05:01:03;;;;;;;57.28;28.55;;;9.30;94.40;;;;;;5035263;28;20029;-70
2020/12/13 05:03:30;;;;;;;52.22;28.08;;;9.30;94.40;;;;;;5036014;28;20017;-74
2020/12/13 05:06:00;;;;;;;53.63;26.85;;;9.30;94.40;;;;;;5035863;28;20026;-72
2020/12/13 05:08:27;;;;;;;52.85;27.00;;;9.30;94.50;;;;;;5035378;28;20014;-73
2020/12/13 05:10:54;;;;;;;52.78;26.58;;;9.30;94.50;;;;;;5035615;28;20112;-73
2020/12/13 05:13:19;;;;;;;51.22;25.95;;;9.30;94.50;;;;;;5035899;28;20470;-73
2020/12/13 05:15:45;;;;;;;59.70;26.40;;;9.30;94.50;;;;;;5033868;28;20056;-71
2020/12/13 05:18:10;;;;;;;51.38;26.65;;;9.40;94.60;;;;;;5034331;28;20064;-73
2020/12/13 05:20:36;;;;;;;64.65;29.15;;;9.40;94.60;;;;;;5033221;28;20493;-74
2020/12/13 05:23:02;;;;;;;54.75;26.25;;;9.40;94.50;;;;;;5033196;28;20123;-71
2020/12/13 05:25:32;;;;;;;54.72;27.05;;;9.40;94.50;;;;;;5035972;28;20022;-75
2020/12/13 05:28:09;;;;;;;46.78;24.17;;;9.40;94.50;;;;;;5035546;28;20033;-76
2020/12/13 05:30:45;;;;;;;49.35;25.63;;;9.40;94.50;;;;;;5034714;28;20084;-77
2020/12/13 05:33:32;;;;;;;42.60;24.70;;;9.40;94.50;;;;;;5035422;28;20071;-74
2020/12/13 05:36:04;;;;;;;50.83;26.10;;;9.40;94.60;;;;;;5035309;28;20028;-77
2020/12/13 05:38:34;;;;;;;46.63;25.85;;;9.40;94.60;;;;;;5034939;28;20058;-78
2020/12/13 05:41:00;;;;;;;45.55;26.42;;;9.40;94.60;;;;;;5035352;28;20190;-79
2020/12/13 05:43:30;;;;;;;42.42;25.23;;;9.40;94.70;;;;;;5034783;28;20104;-76
2020/12/13 05:53:27;;;;;;;36.35;24.05;;;9.40;94.70;;;;;;5035226;28;20474;-73
2020/12/13 05:55:56;;;;;;;42.92;25.45;;;9.40;94.70;;;;;;5034989;28;20040;-77
2020/12/13 05:58:24;;;;;;;37.45;22.63;;;9.40;94.80;;;;;;5034486;28;20401;-77
2020/12/13 06:00:51;;;;;;;35.15;22.70;;;9.40;94.80;;;;;;5035403;28;20024;-77
2020/12/13 06:03:29;;;;;;;38.13;23.58;;;9.40;94.80;;;;;;5035092;28;20028;-79
2020/12/13 06:05:59;;;;;;;39.22;24.42;;;9.50;94.80;;;;;;5034203;28;20083;-77
2020/12/13 06:08:31;;;;;;;35.50;22.75;;;9.50;94.80;;;;;;5035153;28;20024;-81
2020/12/13 06:10:58;;;;;;;35.03;23.23;;;9.50;94.80;;;;;;5034850;28;20022;-86
2020/12/13 06:13:29;;;;;;;33.05;24.33;;;9.50;94.80;;;;;;5034451;28;20099;-82
2020/12/13 06:15:55;;;;;;;36.17;23.42;;;9.50;94.80;;;;;;5034692;28;20439;-78
2020/12/13 06:18:21;;;;;;;32.38;23.05;;;9.50;94.80;;;;;;5034682;28;20071;-71
2020/12/13 06:20:48;;;;;;;35.92;22.80;;;9.50;94.80;;;;;;5034413;28;20123;-82
2020/12/13 06:23:18;;;;;;;78.25;25.13;;;9.50;94.90;;;;;;5033210;28;20022;-80
2020/12/13 06:25:44;;;;;;;38.03;23.83;;;9.50;94.90;;;;;;5033748;28;20129;-77
2020/12/13 06:28:11;;;;;;;31.90;22.92;;;9.50;94.90;;;;;;5034451;28;20103;-82
2020/12/13 06:30:37;;;;;;;32.85;21.67;;;9.50;94.90;;;;;;5034244;28;20120;-82
2020/12/13 06:33:02;;;;;;;30.65;22.67;;;9.50;94.90;;;;;;5033332;28;20584;-84
2020/12/13 06:35:28;;;;;;;29.20;21.33;;;9.50;95.00;;;;;;5034458;28;20017;-84
2020/12/13 06:37:53;;;;;;;28.42;21.13;;;9.50;95.10;;;;;;5034319;28;20421;-84
2020/12/13 06:40:21;;;;;;;32.58;21.95;;;9.50;95.00;;;;;;5034128;28;20013;-80
2020/12/13 06:42:47;;;;;;;175.95;28.83;;;9.50;95.00;;;;;;5034540;28;20558;-84
2020/12/13 06:45:15;;;;;;;30.77;22.45;;;9.50;95.00;;;;;;5032884;28;20033;-82
2020/12/13 06:47:44;;;;;;;39.80;22.05;;;9.50;95.10;;;;;;5033655;28;20025;-77
2020/12/13 06:50:11;;;;;;;29.08;21.10;;;9.60;95.10;;;;;;5033728;28;20087;-78
2020/12/13 06:52:37;;;;;;;205.57;25.95;;;9.60;95.00;;;;;;5033839;28;20462;-75
2020/12/13 06:55:06;;;;;;;25.77;20.90;;;9.60;95.00;;;;;;5033024;28;20075;-73
2020/12/13 06:57:34;;;;;;;33.30;21.50;;;9.60;95.00;;;;;;5033815;28;20051;-72
2020/12/13 07:00:08;;;;;;;27.23;21.15;;;9.60;95.00;;;;;;5033718;28;20470;-78
2020/12/13 07:02:57;;;;;;;31.13;21.30;;;9.60;95.00;;;;;;5033267;28;20060;-81
2020/12/13 07:05:46;;;;;;;31.05;22.13;;;9.60;95.00;;;;;;5034141;28;20029;-73
2020/12/13 07:08:19;;;;;;;27.30;20.65;;;9.60;95.00;;;;;;5032654;28;20025;-74
2020/12/13 07:10:48;;;;;;;27.48;21.17;;;9.70;95.00;;;;;;5033773;28;20036;-75
2020/12/13 07:13:17;;;;;;;29.15;21.20;;;9.70;94.90;;;;;;5032019;28;20125;-71
2020/12/13 07:16:06;;;;;;;31.67;21.48;;;9.70;94.80;;;;;;5033111;28;20417;-74
2020/12/13 07:18:34;;;;;;;28.67;21.08;;;9.70;94.90;;;;;;5034101;28;20136;-76
2020/12/13 07:21:00;;;;;;;25.38;19.85;;;9.60;94.80;;;;;;5033809;28;20029;-72
2020/12/13 07:23:26;;;;;;;30.60;21.92;;;9.70;94.90;;;;;;5031641;28;20092;-79
2020/12/13 07:25:53;;;;;;;30.25;21.67;;;9.70;94.90;;;;;;5032461;28;20048;-71
2020/12/13 07:28:18;;;;;;;29.10;22.00;;;9.60;95.20;;;;;;5033467;28;20488;-70
2020/12/13 07:30:46;;;;;;;27.02;20.67;;;9.70;95.00;;;;;;5032382;28;20076;-75
2020/12/13 07:33:11;;;;;;;25.17;20.17;;;9.70;94.90;;;;;;5032844;28;20025;-78
2020/12/13 07:35:37;;;;;;;26.98;20.08;;;9.70;94.90;;;;;;5033364;28;20493;-79
2020/12/13 07:38:02;;;;;;;27.00;19.92;;;9.70;94.90;;;;;;5031314;28;20032;-81
2020/12/13 07:40:29;;;;;;;23.98;20.15;;;9.70;94.90;;;;;;5033346;28;20021;-81
2020/12/13 07:42:59;;;;;;;26.00;19.90;;;9.70;94.90;;;;;;5032355;28;20578;-82
2020/12/13 07:45:25;;;;;;;27.05;20.58;;;9.70;94.90;;;;;;5032898;28;20021;-82
2020/12/13 07:48:00;;;;;;;23.85;19.08;;;9.70;94.90;;;;;;5033507;28;20075;-80
2020/12/13 07:50:34;;;;;;;26.85;20.27;;;9.70;94.90;;;;;;5032559;28;20061;-83
2020/12/13 07:53:00;;;;;;;25.90;19.58;;;9.70;94.80;;;;;;5032883;28;20029;-81
2020/12/13 07:55:26;;;;;;;30.80;20.25;;;9.70;94.80;;;;;;5031756;28;20060;-82
2020/12/13 07:57:51;;;;;;;24.13;19.17;;;9.70;94.80;;;;;;5032335;28;20060;-75
2020/12/13 08:00:17;;;;;;;27.15;21.63;;;9.70;94.80;;;;;;5031988;28;20467;-85
2020/12/13 08:02:43;;;;;;;24.38;20.60;;;9.80;94.80;;;;;;5033037;28;20087;-80
2020/12/13 08:05:10;;;;;;;26.85;20.75;;;9.80;94.80;;;;;;5032289;28;20049;-81
2020/12/13 08:07:36;;;;;;;25.08;20.33;;;9.80;94.80;;;;;;5031746;28;20017;-77
2020/12/13 08:10:02;;;;;;;25.00;19.90;;;9.80;94.80;;;;;;5032657;28;20389;-71
2020/12/13 08:12:39;;;;;;;21.75;19.48;;;9.80;94.70;;;;;;5032382;28;20026;-80
2020/12/13 08:15:05;;;;;;;24.88;20.75;;;9.80;94.70;;;;;;5031420;28;20044;-75
2020/12/13 08:17:31;;;;;;;28.70;21.42;;;9.80;94.70;;;;;;5032976;28;20505;-82
2020/12/13 08:20:02;;;;;;;21.77;19.38;;;9.80;94.70;;;;;;5032209;28;20021;-82
2020/12/13 08:22:34;;;;;;;24.58;19.80;;;9.80;94.70;;;;;;5033052;28;20018;-82
2020/12/13 08:25:06;;;;;;;28.77;21.02;;;9.90;94.70;;;;;;5032016;28;20025;-79
2020/12/13 08:27:36;;;;;;;22.88;19.45;;;9.90;94.60;;;;;;5031636;28;20108;-81
2020/12/13 08:30:04;;;;;;;26.30;19.83;;;9.90;94.60;;;;;;5031682;28;20470;-82
2020/12/13 08:32:32;;;;;;;22.65;19.75;;;9.90;94.60;;;;;;5032102;28;20045;-86
2020/12/13 08:35:09;;;;;;;22.60;19.20;;;9.90;94.60;;;;;;5032964;28;20026;-81
2020/12/13 08:37:35;;;;;;;21.02;18.67;;;9.90;94.60;;;;;;5032907;28;20034;-80
2020/12/13 08:40:01;;;;;;;21.58;19.27;;;9.90;94.60;;;;;;5031998;28;20025;-77
2020/12/13 08:42:26;;;;;;;21.05;17.60;;;9.80;94.60;;;;;;5032668;28;20493;-81
2020/12/13 08:44:52;;;;;;;18.88;16.95;;;9.80;94.60;;;;;;5032530;28;20040;-71
2020/12/13 08:47:19;;;;;;;36.40;19.42;;;9.80;94.60;;;;;;5031130;28;20057;-81
2020/12/13 08:49:48;;;;;;;23.52;18.13;;;9.80;94.60;;;;;;5032985;28;20029;-85
2020/12/13 08:52:18;;;;;;;25.25;18.92;;;9.80;94.60;;;;;;5030751;28;20020;-77
2020/12/13 08:54:55;;;;;;;19.90;17.75;;;9.80;94.50;;;;;;5031847;28;20109;-76
2020/12/13 08:57:34;;;;;;;19.40;16.95;;;9.80;94.50;;;;;;5034932;28;20101;-80
2020/12/13 09:00:10;;;;;;;17.45;15.60;;;9.80;94.50;;;;;;5035811;28;20072;-77
2020/12/13 09:02:35;;;;;;;18.98;16.98;;;9.80;94.50;;;;;;5035721;28;20112;-71
2020/12/13 09:05:04;;;;;;;18.98;16.17;;;9.90;94.40;;;;;;5035647;28;20168;-71
2020/12/13 09:07:32;;;;;;;22.65;16.63;;;9.90;94.40;;;;;;5034414;28;20075;-72
2020/12/13 09:10:24;;;;;;;18.98;15.75;;;9.90;94.70;;;;;;5035791;28;20624;-75
2020/12/13 09:12:50;;;;;;;17.52;15.00;;;9.90;94.40;;;;;;5030852;28;20030;-74
2020/12/13 09:15:18;;;;;;;15.77;14.05;;;9.90;94.30;;;;;;5034002;28;20022;-88
2020/12/13 09:17:53;;;;;;;19.77;15.20;;;9.80;94.30;;;;;;5034566;28;20382;-82
2020/12/13 09:20:26;;;;;;;14.82;12.90;;;9.90;94.40;;;;;;5036550;28;20127;-80
2020/12/13 09:23:08;;;;;;;15.85;14.25;;;9.90;94.20;;;;;;5035043;28;20370;-76
2020/12/13 09:25:42;;;;;;;16.08;13.90;;;9.90;94.20;;;;;;5035798;28;20039;-71
2020/12/13 09:28:08;;;;;;;17.30;14.90;;;9.90;94.20;;;;;;5034018;28;20059;-74
2020/12/13 09:30:34;;;;;;;19.63;15.32;;;9.90;94.10;;;;;;5033502;28;20045;-74
2020/12/13 09:33:01;;;;;;;20.50;15.30;;;9.90;94.00;;;;;;5033948;28;20021;-73
2020/12/13 09:35:31;;;;;;;20.88;15.80;;;9.90;94.00;;;;;;5026216;28;20513;-72
2020/12/13 09:37:57;;;;;;;16.17;14.55;;;10.00;94.10;;;;;;5001961;28;20494;-78
2020/12/13 09:40:22;;;;;;;20.50;15.10;;;10.00;94.10;;;;;;4994740;28;20364;-76
2020/12/13 09:42:49;;;;;;;18.30;15.43;;;9.90;94.00;;;;;;5013751;28;20029;-76
2020/12/13 09:45:14;;;;;;;23.23;16.15;;;10.00;94.10;;;;;;5014253;28;20072;-77
2020/12/13 09:47:40;;;;;;;18.00;15.25;;;10.00;94.10;;;;;;5015017;28;20030;-77
2020/12/13 09:50:06;;;;;;;20.85;14.35;;;10.00;94.00;;;;;;5013291;28;20481;-81
2020/12/13 09:52:31;;;;;;;18.42;15.25;;;10.00;94.00;;;;;;5014249;28;20030;-78
2020/12/13 09:54:57;;;;;;;22.60;15.88;;;9.90;94.00;;;;;;4996879;28;20045;-73
2020/12/13 09:57:23;;;;;;;24.80;16.10;;;9.90;94.00;;;;;;4993956;28;20015;-78
2020/12/13 09:59:49;;;;;;;26.05;16.88;;;9.90;94.00;;;;;;4994512;28;20022;-77
2020/12/13 10:02:14;;;;;;;23.85;16.08;;;9.90;94.30;;;;;;4993982;28;20531;-73
2020/12/13 10:04:40;;;;;;;25.85;16.65;;;9.90;94.00;;;;;;4995003;28;20483;-76
2020/12/13 10:09:34;;;;;;;30.92;17.48;;;10.00;94.00;;;;;;4995731;28;20128;-72
2020/12/13 10:12:00;;;;;;;21.33;16.50;;;10.00;94.00;;;;;;4993264;28;20105;-75
2020/12/13 10:14:26;;;;;;;27.75;18.38;;;10.00;94.00;;;;;;4995499;28;20375;-77
2020/12/13 10:16:52;;;;;;;24.80;19.02;;;10.00;93.90;;;;;;4994972;28;20031;-73
2020/12/13 10:19:18;;;;;;;24.02;19.45;;;10.10;94.00;;;;;;4994731;28;20022;-72
2020/12/13 10:21:44;;;;;;;24.80;19.02;;;10.10;94.00;;;;;;4994055;28;20027;-79
2020/12/13 10:24:10;;;;;;;29.55;21.38;;;10.10;93.90;;;;;;4993561;28;20030;-76
2020/12/13 10:26:37;;;;;;;27.10;20.98;;;10.10;93.90;;;;;;4993073;28;20026;-76
2020/12/13 10:29:04;;;;;;;30.30;22.38;;;10.10;93.90;;;;;;4995920;28;20054;-82
2020/12/13 10:31:35;;;;;;;28.65;22.88;;;10.10;93.90;;;;;;5013314;28;20042;-79
2020/12/13 10:34:03;;;;;;;28.57;21.80;;;10.10;93.80;;;;;;5012668;28;20361;-81
2020/12/13 10:36:31;;;;;;;31.70;23.65;;;10.10;93.70;;;;;;5003829;28;20029;-85
2020/12/13 10:38:57;;;;;;;30.45;23.63;;;10.00;93.80;;;;;;5007392;28;20080;-82
2020/12/13 10:41:23;;;;;;;33.88;24.95;;;10.10;93.90;;;;;;5003214;28;20030;-84
2020/12/13 10:43:49;;;;;;;29.65;23.45;;;10.10;93.70;;;;;;5007818;28;20051;-84
2020/12/13 10:46:16;;;;;;;33.45;23.23;;;10.10;93.60;;;;;;5002133;28;20054;-81
2020/12/13 10:48:41;;;;;;;34.00;23.60;;;10.10;93.60;;;;;;5011840;28;20062;-86
2020/12/13 10:51:07;;;;;;;28.67;23.48;;;10.10;93.50;;;;;;5014678;28;20450;-75
2020/12/13 10:53:35;;;;;;;30.77;23.20;;;10.10;93.50;;;;;;5013088;28;20018;-84
2020/12/13 10:56:03;;;;;;;33.90;22.20;;;10.10;93.50;;;;;;5014569;28;20642;-82
2020/12/13 10:58:29;;;;;;;31.92;23.15;;;10.20;93.40;;;;;;5014914;28;20105;-82
2020/12/13 11:00:56;;;;;;;28.02;21.83;;;10.20;93.40;;;;;;5014187;28;20060;-88
2020/12/13 11:03:22;;;;;;;32.67;22.83;;;10.30;93.30;;;;;;5014490;28;20025;-84
2020/12/13 11:05:48;;;;;;;29.88;21.15;;;10.30;93.30;;;;;;5013442;28;20471;-86
2020/12/13 11:08:14;;;;;;;27.75;20.95;;;10.40;93.20;;;;;;5011850;28;20029;-73
2020/12/13 11:10:47;;;;;;;23.75;20.10;;;10.40;93.10;;;;;;5006302;28;20041;-76
2020/12/13 11:13:14;;;;;;;25.98;20.25;;;10.50;93.10;;;;;;5010791;28;20025;-74
2020/12/13 11:15:42;;;;;;;29.38;20.23;;;10.50;93.10;;;;;;5012541;28;20050;-73
2020/12/13 11:18:07;;;;;;;25.55;18.55;;;10.40;92.90;;;;;;5012832;28;20030;-74
2020/12/13 11:20:33;;;;;;;31.55;19.27;;;10.50;92.90;;;;;;5013512;28;20053;-77
2020/12/13 11:22:58;;;;;;;27.75;19.85;;;10.50;92.90;;;;;;5010961;28;20084;-80
2020/12/13 11:25:24;;;;;;;27.92;20.10;;;10.50;92.80;;;;;;5011533;28;20040;-77
2020/12/13 11:27:50;;;;;;;25.95;19.15;;;10.60;92.80;;;;;;5011799;28;20054;-79
2020/12/13 11:30:15;;;;;;;24.15;16.65;;;10.60;92.70;;;;;;5013090;28;20038;-83
2020/12/13 11:32:44;;;;;;;23.27;16.27;;;10.60;92.60;;;;;;5032449;28;20043;-76
2020/12/13 11:35:10;;;;;;;19.45;16.08;;;10.60;92.50;;;;;;5014355;28;20375;-75
2020/12/13 11:37:36;;;;;;;22.90;15.30;;;10.60;92.40;;;;;;5014986;28;20497;-75
2020/12/13 11:40:01;;;;;;;20.08;14.88;;;10.60;92.30;;;;;;5015408;28;20057;-76
2020/12/13 11:42:27;;;;;;;20.42;14.82;;;10.60;92.20;;;;;;5014379;28;20068;-75
2020/12/13 11:44:52;;;;;;;21.10;14.25;;;10.70;92.30;;;;;;5014546;28;20029;-75
2020/12/13 11:47:18;;;;;;;18.95;13.13;;;10.70;92.20;;;;;;5015065;28;20072;-75
2020/12/13 11:49:44;;;;;;;19.27;12.35;;;10.60;92.10;;;;;;5031970;28;20038;-75
2020/12/13 11:52:10;;;;;;;18.98;11.82;;;10.60;91.90;;;;;;5032575;28;20027;-75
2020/12/13 11:54:36;;;;;;;17.30;11.73;;;10.50;92.00;;;;;;5011411;28;20120;-75
2020/12/13 11:57:02;;;;;;;15.25;9.68;;;10.50;92.10;;;;;;5031584;28;20024;-77
2020/12/13 11:59:28;;;;;;;16.17;9.68;;;10.40;91.90;;;;;;5032830;28;20100;-77
2020/12/13 12:01:55;;;;;;;17.45;9.40;;;10.40;91.70;;;;;;5032196;28;20045;-73
2020/12/13 12:04:22;;;;;;;12.75;8.52;;;10.40;91.80;;;;;;5031524;28;20032;-73
2020/12/13 12:06:48;;;;;;;16.08;8.07;;;10.40;91.80;;;;;;5032227;28;20029;-73
2020/12/13 12:09:15;;;;;;;11.52;8.05;;;10.40;91.90;;;;;;5031665;28;20095;-73
2020/12/13 12:11:41;;;;;;;15.52;6.80;;;10.40;91.90;;;;;;5014202;28;20108;-74
2020/12/13 12:14:11;;;;;;;13.18;6.95;;;10.40;91.70;;;;;;5013919;28;20033;-73
2020/12/13 12:16:38;;;;;;;10.95;6.93;;;10.30;91.60;;;;;;5012196;28;20028;-78
2020/12/13 12:19:42;;;;;;;13.02;7.15;;;10.30;91.30;;;;;;4993233;28;20334;-82
2020/12/13 12:22:35;;;;;;;19.50;9.85;;;10.20;91.40;;;;;;5030342;28;20465;-82
2020/12/13 12:25:02;;;;;;;19.02;10.52;;;10.10;91.60;;;;;;4996714;28;20038;-76
2020/12/13 12:27:28;;;;;;;15.48;9.50;;;10.10;91.60;;;;;;4994486;28;20119;-79
2020/12/13 12:29:54;;;;;;;13.57;9.45;;;10.00;91.50;;;;;;4996231;28;20529;-74
2020/12/13 12:32:19;;;;;;;19.17;15.05;;;10.00;91.60;;;;;;5017039;28;20056;-76
2020/12/13 12:34:45;;;;;;;23.60;18.52;;;10.00;91.60;;;;;;5035513;28;20017;-76
2020/12/13 12:37:10;;;;;;;18.17;10.85;;;10.00;91.50;;;;;;5017235;28;20512;-77
2020/12/13 12:39:36;;;;;;;10.52;6.35;;;9.90;91.50;;;;;;5034646;28;20025;-76
2020/12/13 12:42:01;;;;;;;16.25;6.18;;;9.80;91.50;;;;;;5018105;28;20017;-75
2020/12/13 12:44:27;;;;;;;13.15;6.35;;;9.80;91.50;;;;;;5036043;28;20048;-78
2020/12/13 12:46:52;;;;;;;9.57;5.25;;;9.80;91.60;;;;;;5017043;28;20021;-78